createdAt,value
2022-10-11T00:00:56.176Z,54.21
2022-10-11T00:01:56.151Z,58.20
2022-10-11T00:02:56.121Z,56.55
2022-10-11T00:03:56.223Z,52.61
2022-10-11T00:04:56.172Z,55.37
2022-10-11T00:05:56.089Z,54.14
2022-10-11T00:06:56.217Z,54.68
2022-10-11T00:07:56.161Z,54.55
2022-10-11T00:08:56.063Z,49.14
2022-10-11T00:09:56.159Z,55.32
2022-10-11T00:10:56.145Z,54.95
2022-10-11T00:11:56.171Z,57.63
2022-10-11T00:12:56.230Z,55.21
2022-10-11T00:13:56.155Z,54.92
2022-10-11T00:14:56.161Z,51.53
2022-10-11T00:15:56.043Z,48.52
2022-10-11T00:16:56.027Z,56.89
2022-10-11T00:17:56.081Z,54.53
2022-10-11T00:18:56.071Z,58.53
2022-10-11T00:19:56.079Z,55.21
2022-10-11T00:20:56.116Z,59.48
2022-10-11T00:21:55.988Z,53.98
2022-10-11T00:22:56.078Z,61.49
2022-10-11T00:23:56.155Z,49.34
2022-10-11T00:24:55.964Z,48.71
2022-10-11T00:25:56.088Z,60.97
2022-10-11T00:26:56.150Z,60.50
2022-10-11T00:27:55.945Z,61.09
2022-10-11T00:28:56.109Z,56.16
2022-10-11T00:29:56.009Z,53.94
2022-10-11T00:30:55.953Z,57.95
2022-10-11T00:31:56.010Z,60.59
2022-10-11T00:32:56.001Z,55.84
2022-10-11T00:33:55.889Z,54.02
2022-10-11T00:34:56.021Z,54.64
2022-10-11T00:35:55.987Z,55.00
2022-10-11T00:36:55.886Z,49.16
2022-10-11T00:37:55.893Z,53.63
2022-10-11T00:38:55.864Z,51.62
2022-10-11T00:39:55.968Z,51.58
2022-10-11T00:40:55.873Z,55.17
2022-10-11T00:41:56.476Z,50.88
2022-10-11T00:42:55.851Z,57.97
2022-10-11T00:43:55.921Z,53.71
2022-10-11T00:44:56.054Z,50.17
2022-10-11T00:45:55.920Z,55.94
2022-10-11T00:46:56.194Z,59.84
2022-10-11T00:47:56.498Z,52.43
2022-10-11T00:48:55.935Z,52.10
2022-10-11T00:49:55.876Z,59.94
2022-10-11T00:50:56.011Z,59.45
2022-10-11T00:51:55.776Z,58.00
2022-10-11T00:52:55.841Z,50.86
2022-10-11T00:53:55.835Z,51.69
2022-10-11T00:54:55.773Z,57.68
2022-10-11T00:55:55.776Z,52.28
2022-10-11T00:56:55.735Z,58.29
2022-10-11T00:57:55.822Z,57.43
2022-10-11T00:58:55.731Z,61.38
2022-10-11T00:59:55.799Z,55.37
2022-10-11T01:00:55.902Z,63.72
2022-10-11T01:01:55.787Z,58.39
2022-10-11T01:02:55.776Z,61.57
2022-10-11T01:03:55.865Z,60.68
2022-10-11T01:05:17.986Z,51.64
2022-10-11T01:05:57.733Z,59.88
2022-10-11T01:06:55.773Z,58.74
2022-10-11T01:07:55.784Z,57.79
2022-10-11T01:08:55.715Z,54.75
2022-10-11T01:09:56.064Z,52.58
2022-10-11T01:10:55.651Z,59.86
2022-10-11T01:11:55.650Z,58.89
2022-10-11T01:12:55.898Z,51.48
2022-10-11T01:13:55.632Z,56.48
2022-10-11T01:14:55.592Z,59.31
2022-10-11T01:15:55.594Z,57.94
2022-10-11T01:16:55.716Z,61.70
2022-10-11T01:17:55.572Z,59.58
2022-10-11T01:18:55.740Z,57.32
2022-10-11T01:19:56.507Z,59.50
2022-10-11T01:20:55.666Z,63.36
2022-10-11T01:21:55.656Z,59.46
2022-10-11T01:22:55.681Z,59.95
2022-10-11T01:23:55.657Z,58.42
2022-10-11T01:24:55.698Z,59.16
2022-10-11T01:25:55.840Z,58.06
2022-10-11T01:26:55.612Z,59.12
2022-10-11T01:27:55.634Z,59.57
2022-10-11T01:28:55.729Z,59.02
2022-10-11T01:29:55.497Z,62.12
2022-10-11T01:30:55.470Z,57.64
2022-10-11T01:31:55.490Z,60.05
2022-10-11T01:33:00.384Z,54.25
2022-10-11T01:33:55.512Z,53.00
2022-10-11T01:34:55.443Z,57.96
2022-10-11T01:35:55.433Z,56.33
2022-10-11T01:36:55.436Z,56.78
2022-10-11T01:37:55.428Z,55.99
2022-10-11T01:38:55.632Z,58.46
2022-10-11T01:39:55.567Z,56.85
2022-10-11T01:40:55.412Z,59.85
2022-10-11T01:41:55.533Z,61.50
2022-10-11T01:42:55.468Z,54.59
2022-10-11T01:43:55.476Z,59.30
2022-10-11T01:44:55.532Z,59.83
2022-10-11T01:45:55.511Z,63.28
2022-10-11T01:46:55.444Z,62.03
2022-10-11T01:47:55.489Z,60.82
2022-10-11T01:48:55.488Z,61.21
2022-10-11T01:49:55.507Z,64.72
2022-10-11T01:50:55.457Z,61.56
2022-10-11T01:51:55.385Z,65.00
2022-10-11T01:52:55.337Z,59.12
2022-10-11T01:53:55.443Z,56.11
2022-10-11T01:55:09.010Z,59.00
2022-10-11T01:55:57.351Z,61.95
2022-10-11T01:56:55.350Z,62.39
2022-10-11T01:57:55.391Z,60.77
2022-10-11T01:58:55.269Z,58.09
2022-10-11T01:59:55.393Z,55.60
2022-10-11T02:00:55.458Z,61.41
2022-10-11T02:01:55.429Z,63.08
2022-10-11T02:02:55.381Z,57.33
2022-10-11T02:03:55.350Z,58.81
2022-10-11T02:04:55.343Z,63.02
2022-10-11T02:05:55.333Z,63.66
2022-10-11T02:06:55.373Z,60.94
2022-10-11T02:07:55.315Z,61.46
2022-10-11T02:08:55.212Z,56.11
2022-10-11T02:09:55.218Z,59.30
2022-10-11T02:10:55.210Z,60.09
2022-10-11T02:11:55.328Z,62.99
2022-10-11T02:12:55.196Z,61.80
2022-10-11T02:13:55.163Z,63.07
2022-10-11T02:14:56.029Z,57.96
2022-10-11T02:15:55.269Z,59.44
2022-10-11T02:16:55.157Z,58.53
2022-10-11T02:17:55.569Z,61.40
2022-10-11T02:18:55.298Z,62.88
2022-10-11T02:19:55.216Z,61.45
2022-10-11T02:20:55.235Z,63.22
2022-10-11T02:21:55.205Z,63.05
2022-10-11T02:22:56.051Z,61.72
2022-10-11T02:23:55.191Z,65.86
2022-10-11T02:24:55.209Z,65.53
2022-10-11T02:25:55.091Z,61.50
2022-10-11T02:26:55.097Z,57.88
2022-10-11T02:27:55.160Z,58.80
2022-10-11T02:28:55.212Z,57.05
2022-10-11T02:29:55.080Z,57.84
2022-10-11T02:30:55.129Z,62.47
2022-10-11T02:31:55.058Z,61.50
2022-10-11T02:32:55.057Z,60.14
2022-10-11T02:33:55.096Z,58.19
2022-10-11T02:34:55.031Z,62.25
2022-10-11T02:35:55.161Z,64.51
2022-10-11T02:36:55.112Z,61.23
2022-10-11T02:37:55.002Z,59.14
2022-10-11T02:38:55.137Z,61.87
2022-10-11T02:39:55.157Z,66.74
2022-10-11T02:40:55.074Z,64.84
2022-10-11T02:41:55.054Z,65.82
2022-10-11T02:42:55.046Z,62.13
2022-10-11T02:43:55.055Z,62.63
2022-10-11T02:44:55.090Z,64.12
2022-10-11T02:45:54.952Z,62.18
2022-10-11T02:46:54.942Z,59.28
2022-10-11T02:47:54.914Z,61.30
2022-10-11T02:48:54.921Z,62.62
2022-10-11T02:49:54.961Z,62.11
2022-10-11T02:50:54.900Z,63.48
2022-10-11T02:51:54.927Z,62.68
2022-10-11T02:52:54.907Z,60.38
2022-10-11T02:53:54.875Z,59.85
2022-10-11T02:54:54.887Z,63.20
2022-10-11T02:55:54.940Z,61.24
2022-10-11T02:56:54.881Z,60.31
2022-10-11T02:57:54.955Z,59.94
2022-10-11T02:58:54.894Z,60.69
2022-10-11T02:59:54.940Z,60.06
2022-10-11T03:00:55.004Z,61.47
2022-10-11T03:01:54.929Z,60.54
2022-10-11T03:02:54.988Z,58.86
2022-10-11T03:03:54.906Z,59.29
2022-10-11T03:04:54.817Z,60.11
2022-10-11T03:05:54.899Z,61.84
2022-10-11T03:06:54.992Z,61.88
2022-10-11T03:07:54.812Z,62.59
2022-10-11T03:08:54.880Z,60.67
2022-10-11T03:09:54.875Z,62.03
2022-10-11T03:10:54.804Z,60.47
2022-10-11T03:11:54.820Z,63.90
2022-10-11T03:12:54.751Z,63.08
2022-10-11T03:13:54.768Z,64.59
2022-10-11T03:14:54.839Z,60.14
2022-10-11T03:16:02.703Z,58.93
2022-10-11T03:17:12.125Z,62.03
2022-10-11T03:17:55.730Z,62.64
2022-10-11T03:18:54.739Z,59.38
2022-10-11T03:19:54.706Z,59.70
2022-10-11T03:20:54.878Z,63.11
2022-10-11T03:21:54.824Z,62.45
2022-10-11T03:22:54.936Z,61.54
2022-10-11T03:23:54.843Z,61.02
2022-10-11T03:24:57.455Z,64.29
2022-10-11T03:25:54.679Z,63.18
2022-10-11T03:26:54.758Z,63.82
2022-10-11T03:27:54.790Z,63.38
2022-10-11T03:28:54.707Z,64.05
2022-10-11T03:29:54.780Z,64.33
2022-10-11T03:30:54.732Z,60.73
2022-10-11T03:31:54.628Z,63.75
2022-10-11T03:32:55.828Z,62.36
2022-10-11T03:33:54.783Z,64.72
2022-10-11T03:34:54.611Z,64.40
2022-10-11T03:35:54.595Z,65.19
2022-10-11T03:36:54.599Z,63.87
2022-10-11T03:37:54.585Z,63.00
2022-10-11T03:38:54.713Z,62.73
2022-10-11T03:39:54.658Z,64.24
2022-10-11T03:40:54.606Z,69.21
2022-10-11T03:41:54.658Z,64.30
2022-10-11T03:42:54.652Z,63.14
2022-10-11T03:43:54.651Z,62.80
2022-10-11T03:44:54.645Z,62.38
2022-10-11T03:45:54.663Z,63.51
2022-10-11T03:46:54.534Z,62.51
2022-10-11T03:47:54.616Z,66.52
2022-10-11T03:48:54.687Z,65.96
2022-10-11T03:49:54.497Z,66.65
2022-10-11T03:50:54.664Z,67.07
2022-10-11T03:51:54.583Z,65.80
2022-10-11T03:52:54.514Z,66.36
2022-10-11T03:53:54.571Z,66.00
2022-10-11T03:54:54.501Z,65.41
2022-10-11T03:55:54.484Z,66.88
2022-10-11T03:56:54.452Z,64.76
2022-10-11T03:57:54.556Z,66.79
2022-10-11T03:58:54.472Z,64.45
2022-10-11T04:00:10.087Z,61.99
2022-10-11T04:00:54.430Z,62.26
2022-10-11T04:01:54.589Z,62.72
2022-10-11T04:02:54.513Z,62.32
2022-10-11T04:03:54.547Z,65.07
2022-10-11T04:04:54.426Z,64.81
2022-10-11T04:05:54.554Z,64.93
2022-10-11T04:06:54.477Z,65.19
2022-10-11T04:07:54.501Z,65.52
2022-10-11T04:08:54.545Z,63.79
2022-10-11T04:09:54.510Z,64.99
2022-10-11T04:10:54.387Z,67.08
2022-10-11T04:11:54.498Z,67.25
2022-10-11T04:12:54.441Z,65.49
2022-10-11T04:13:54.357Z,64.57
2022-10-11T04:14:54.364Z,65.55
2022-10-11T04:15:54.329Z,64.13
2022-10-11T04:16:56.405Z,64.00
2022-10-11T04:17:55.437Z,66.43
2022-10-11T04:18:54.303Z,65.31
2022-10-11T04:19:54.311Z,64.92
2022-10-11T04:20:54.284Z,64.80
2022-10-11T04:21:54.424Z,63.45
2022-10-11T04:22:54.290Z,64.68
2022-10-11T04:23:54.350Z,65.64
2022-10-11T04:24:54.364Z,64.10
2022-10-11T04:25:54.280Z,62.76
2022-10-11T04:26:54.358Z,63.62
2022-10-11T04:27:54.705Z,63.04
2022-10-11T04:28:54.420Z,64.36
2022-10-11T04:29:54.317Z,65.09
2022-10-11T04:30:54.367Z,66.65
2022-10-11T04:31:54.231Z,64.73
2022-10-11T04:32:54.238Z,66.13
2022-10-11T04:33:54.293Z,66.21
2022-10-11T04:34:54.333Z,68.54
2022-10-11T04:35:54.169Z,65.29
2022-10-11T04:36:54.287Z,64.19
2022-10-11T04:37:54.587Z,65.21
2022-10-11T04:38:54.191Z,66.19
2022-10-11T04:39:54.236Z,66.52
2022-10-11T04:40:54.248Z,66.46
2022-10-11T04:41:54.201Z,67.45
2022-10-11T04:42:54.242Z,67.60
2022-10-11T04:43:54.257Z,66.23
2022-10-11T04:44:54.235Z,65.53
2022-10-11T04:45:55.588Z,65.93
2022-10-11T04:46:55.272Z,66.07
2022-10-11T04:47:54.099Z,64.89
2022-10-11T04:48:54.169Z,66.81
2022-10-11T04:49:54.136Z,66.19
2022-10-11T04:50:54.120Z,66.11
2022-10-11T04:51:54.081Z,67.28
2022-10-11T04:52:54.101Z,66.27
2022-10-11T04:53:54.083Z,65.96
2022-10-11T04:54:54.139Z,66.16
2022-10-11T04:55:54.666Z,64.54
2022-10-11T04:56:54.080Z,63.11
2022-10-11T04:57:54.059Z,64.49
2022-10-11T04:58:54.219Z,65.03
2022-10-11T04:59:54.054Z,65.99
2022-10-11T05:00:54.097Z,66.28
2022-10-11T05:01:54.154Z,65.27
2022-10-11T05:02:54.071Z,64.97
2022-10-11T05:03:54.061Z,65.73
2022-10-11T05:04:54.177Z,66.49
2022-10-11T05:05:54.049Z,67.90
2022-10-11T05:06:54.058Z,65.30
2022-10-11T05:07:54.064Z,66.57
2022-10-11T05:08:54.015Z,65.50
2022-10-11T05:09:54.029Z,66.67
2022-10-11T05:10:54.052Z,65.86
2022-10-11T05:11:53.949Z,65.42
2022-10-11T05:12:53.987Z,66.08
2022-10-11T05:13:54.055Z,66.82
2022-10-11T05:15:01.903Z,66.44
2022-10-11T05:15:53.988Z,63.96
2022-10-11T05:16:54.050Z,63.93
2022-10-11T05:17:53.894Z,64.33
2022-10-11T05:18:57.379Z,64.02
2022-10-11T05:19:53.856Z,64.70
2022-10-11T05:20:53.865Z,65.03
2022-10-11T05:21:54.075Z,63.66
2022-10-11T05:22:53.921Z,63.46
2022-10-11T05:23:53.853Z,63.08
2022-10-11T05:24:53.922Z,64.29
2022-10-11T05:25:53.925Z,64.88
2022-10-11T05:26:53.940Z,66.86
2022-10-11T05:27:54.559Z,66.58
2022-10-11T05:28:53.949Z,66.47
2022-10-11T05:29:53.886Z,65.46
2022-10-11T05:30:53.794Z,65.96
2022-10-11T05:31:53.766Z,65.23
2022-10-11T05:32:54.085Z,65.87
2022-10-11T05:33:53.855Z,64.97
2022-10-11T05:34:53.782Z,64.74
2022-10-11T05:35:53.792Z,64.57
2022-10-11T05:36:53.787Z,64.21
2022-10-11T05:37:53.812Z,65.67
2022-10-11T05:38:53.774Z,63.71
2022-10-11T05:39:53.765Z,63.25
2022-10-11T05:40:53.833Z,63.65
2022-10-11T05:41:53.722Z,62.57
2022-10-11T05:42:53.840Z,64.52
2022-10-11T05:43:53.783Z,65.83
2022-10-11T05:44:53.712Z,66.19
2022-10-11T05:45:54.047Z,64.42
2022-10-11T05:46:53.759Z,63.78
2022-10-11T05:47:53.658Z,63.17
2022-10-11T05:48:53.827Z,63.99
2022-10-11T05:49:53.743Z,63.81
2022-10-11T05:50:53.712Z,63.94
2022-10-11T05:51:53.727Z,63.83
2022-10-11T05:52:53.734Z,64.12
2022-10-11T05:53:53.673Z,64.67
2022-10-11T05:54:53.637Z,64.51
2022-10-11T05:55:53.615Z,65.42
2022-10-11T05:56:53.716Z,63.97
2022-10-11T05:57:53.629Z,64.64
2022-10-11T05:58:54.964Z,64.47
2022-10-11T05:59:53.606Z,62.37
2022-10-11T06:00:53.912Z,63.61
2022-10-11T06:01:53.675Z,62.60
2022-10-11T06:02:53.565Z,63.47
2022-10-11T06:03:53.639Z,63.15
2022-10-11T06:04:53.663Z,63.30
2022-10-11T06:05:56.997Z,64.40
2022-10-11T06:06:54.699Z,63.46
2022-10-11T06:07:53.607Z,63.07
2022-10-11T06:08:53.512Z,62.99
2022-10-11T06:09:53.649Z,63.50
2022-10-11T06:10:53.630Z,66.40
2022-10-11T06:11:53.488Z,64.72
2022-10-11T06:12:53.556Z,64.14
2022-10-11T06:13:53.469Z,63.66
2022-10-11T06:14:53.467Z,65.27
2022-10-11T06:15:53.532Z,63.97
2022-10-11T06:16:53.538Z,64.67
2022-10-11T06:17:53.543Z,64.75
2022-10-11T06:18:53.465Z,63.57
2022-10-11T06:19:54.049Z,65.33
2022-10-11T06:20:53.469Z,65.70
2022-10-11T06:21:53.658Z,61.12
2022-10-11T06:22:53.516Z,62.86
2022-10-11T06:23:58.372Z,62.10
2022-10-11T06:24:55.518Z,64.84
2022-10-11T06:25:53.643Z,63.06
2022-10-11T06:26:53.411Z,63.54
2022-10-11T06:27:53.451Z,62.77
2022-10-11T06:28:53.502Z,62.95
2022-10-11T06:29:53.399Z,63.26
2022-10-11T06:30:54.495Z,64.25
2022-10-11T06:31:53.453Z,64.73
2022-10-11T06:32:53.337Z,63.40
2022-10-11T06:33:53.439Z,62.37
2022-10-11T06:34:53.328Z,62.39
2022-10-11T06:35:53.318Z,62.50
2022-10-11T06:36:53.807Z,63.76
2022-10-11T06:37:53.395Z,62.60
2022-10-11T06:38:53.300Z,63.11
2022-10-11T06:39:53.376Z,63.03
2022-10-11T06:40:53.392Z,61.52
2022-10-11T06:41:53.329Z,60.39
2022-10-11T06:42:53.386Z,61.92
2022-10-11T06:43:53.354Z,62.91
2022-10-11T06:44:53.278Z,64.53
2022-10-11T06:45:53.346Z,63.04
2022-10-11T06:46:53.432Z,63.94
2022-10-11T06:47:53.253Z,63.96
2022-10-11T06:48:53.400Z,62.82
2022-10-11T06:49:53.292Z,61.54
2022-10-11T06:51:00.067Z,62.03
2022-10-11T06:51:55.379Z,62.76
2022-10-11T06:52:53.287Z,63.52
2022-10-11T06:53:53.213Z,62.69
2022-10-11T06:54:53.176Z,60.89
2022-10-11T06:55:53.182Z,61.20
2022-10-11T06:56:53.175Z,61.18
2022-10-11T06:57:53.205Z,62.81
2022-10-11T06:58:53.246Z,62.94
2022-10-11T06:59:53.251Z,61.28
2022-10-11T07:00:53.300Z,62.90
2022-10-11T07:01:53.226Z,63.00
2022-10-11T07:02:53.250Z,62.80
2022-10-11T07:03:53.196Z,64.83
2022-10-11T07:04:53.211Z,62.52
2022-10-11T07:05:53.131Z,63.39
2022-10-11T07:06:53.203Z,63.33
2022-10-11T07:07:53.212Z,63.09
2022-10-11T07:08:53.120Z,61.65
2022-10-11T07:09:53.236Z,61.49
2022-10-11T07:10:53.161Z,62.73
2022-10-11T07:11:53.068Z,63.77
2022-10-11T07:12:53.149Z,62.46
2022-10-11T07:13:53.099Z,62.89
2022-10-11T07:14:53.099Z,64.04
2022-10-11T07:15:53.067Z,62.50
2022-10-11T07:16:53.131Z,63.50
2022-10-11T07:17:53.042Z,62.89
2022-10-11T07:18:58.786Z,62.27
2022-10-11T07:19:55.064Z,61.32
2022-10-11T07:20:53.189Z,62.75
2022-10-11T07:21:53.115Z,62.83
2022-10-11T07:22:53.095Z,62.93
2022-10-11T07:23:52.972Z,63.34
2022-10-11T07:24:53.114Z,61.23
2022-10-11T07:25:53.068Z,62.17
2022-10-11T07:26:53.010Z,62.46
2022-10-11T07:27:53.057Z,61.29
2022-10-11T07:28:53.174Z,61.60
2022-10-11T07:29:52.958Z,63.17
2022-10-11T07:30:53.059Z,61.78
2022-10-11T07:31:52.955Z,63.19
2022-10-11T07:32:52.967Z,63.14
2022-10-11T07:33:52.911Z,62.24
2022-10-11T07:34:53.126Z,63.79
2022-10-11T07:35:52.940Z,63.17
2022-10-11T07:36:52.962Z,63.22
2022-10-11T07:37:52.996Z,63.87
2022-10-11T07:38:52.880Z,64.06
2022-10-11T07:39:52.931Z,61.53
2022-10-11T07:40:52.937Z,62.61
2022-10-11T07:41:53.314Z,64.53
2022-10-11T07:42:52.938Z,62.57
2022-10-11T07:43:52.965Z,63.03
2022-10-11T07:44:52.939Z,60.04
2022-10-11T07:45:52.897Z,62.24
2022-10-11T07:46:52.943Z,61.84
2022-10-11T07:47:52.807Z,60.33
2022-10-11T07:48:52.806Z,59.91
2022-10-11T07:49:52.928Z,59.41
2022-10-11T07:50:52.781Z,62.48
2022-10-11T07:51:52.760Z,61.01
2022-10-11T07:52:52.835Z,62.83
2022-10-11T07:53:52.737Z,63.12
2022-10-11T07:54:52.785Z,62.41
2022-10-11T07:55:52.903Z,61.09
2022-10-11T07:56:52.832Z,60.81
2022-10-11T07:57:52.779Z,63.01
2022-10-11T07:58:52.844Z,63.63
2022-10-11T07:59:52.803Z,61.83
2022-10-11T08:00:52.794Z,62.25
2022-10-11T08:01:52.879Z,61.59
2022-10-11T08:02:52.835Z,61.11
2022-10-11T08:03:52.803Z,61.50
2022-10-11T08:04:52.864Z,61.33
2022-10-11T08:05:52.767Z,60.01
2022-10-11T08:06:53.605Z,59.27
2022-10-11T08:07:53.782Z,61.08
2022-10-11T08:08:52.735Z,57.41
2022-10-11T08:09:52.673Z,61.46
2022-10-11T08:10:52.650Z,59.43
2022-10-11T08:11:52.608Z,60.09
2022-10-11T08:12:52.619Z,60.68
2022-10-11T08:13:52.673Z,62.41
2022-10-11T08:14:52.617Z,61.67
2022-10-11T08:15:52.620Z,62.61
2022-10-11T08:16:52.622Z,63.19
2022-10-11T08:17:52.628Z,60.41
2022-10-11T08:18:52.648Z,63.62
2022-10-11T08:19:52.658Z,59.80
2022-10-11T08:20:52.663Z,61.84
2022-10-11T08:21:52.644Z,61.44
2022-10-11T08:22:52.634Z,61.31
2022-10-11T08:23:52.665Z,62.95
2022-10-11T08:24:52.627Z,62.07
2022-10-11T08:25:52.645Z,62.23
2022-10-11T08:26:52.682Z,57.99
2022-10-11T08:27:52.518Z,59.14
2022-10-11T08:28:52.663Z,59.69
2022-10-11T08:29:52.634Z,60.78
2022-10-11T08:30:52.626Z,61.90
2022-10-11T08:31:52.721Z,60.39
2022-10-11T08:32:52.634Z,59.63
2022-10-11T08:33:52.585Z,59.47
2022-10-11T08:34:52.660Z,61.32
2022-10-11T08:35:52.597Z,60.99
2022-10-11T08:36:52.567Z,57.59
2022-10-11T08:37:52.498Z,60.80
2022-10-11T08:38:52.458Z,59.50
2022-10-11T08:39:52.440Z,58.89
2022-10-11T08:40:52.470Z,60.82
2022-10-11T08:41:52.429Z,59.78
2022-10-11T08:42:52.463Z,56.53
2022-10-11T08:43:52.464Z,60.64
2022-10-11T08:45:09.915Z,62.43
2022-10-11T08:45:54.504Z,60.65
2022-10-11T08:46:58.191Z,60.20
2022-10-11T08:47:53.368Z,59.21
2022-10-11T08:48:52.425Z,59.87
2022-10-11T08:49:52.415Z,60.89
2022-10-11T08:50:52.519Z,59.66
2022-10-11T08:51:52.457Z,60.41
2022-10-11T08:52:52.450Z,62.35
2022-10-11T08:53:52.484Z,61.57
2022-10-11T08:54:52.422Z,58.86
2022-10-11T08:55:52.424Z,59.19
2022-10-11T08:56:52.452Z,59.62
2022-10-11T08:57:52.495Z,57.50
2022-10-11T08:58:52.442Z,60.32
2022-10-11T08:59:52.419Z,61.30
2022-10-11T09:00:52.447Z,59.66
2022-10-11T09:01:52.423Z,59.22
2022-10-11T09:03:07.963Z,60.14
2022-10-11T09:03:54.301Z,60.78
2022-10-11T09:04:52.256Z,61.74
2022-10-11T09:05:52.566Z,61.80
2022-10-11T09:06:52.330Z,62.61
2022-10-11T09:07:52.402Z,62.37
2022-10-11T09:08:52.347Z,61.75
2022-10-11T09:09:52.310Z,67.20
2022-10-11T09:10:52.397Z,60.51
2022-10-11T09:11:52.297Z,58.85
2022-10-11T09:12:52.347Z,58.16
2022-10-11T09:13:52.412Z,58.75
2022-10-11T09:14:52.349Z,59.18
2022-10-11T09:15:52.339Z,60.26
2022-10-11T09:16:52.255Z,59.04
2022-10-11T09:17:52.253Z,60.41
2022-10-11T09:18:52.305Z,78.33
2022-10-11T09:19:53.151Z,57.64
2022-10-11T09:20:52.179Z,60.91
2022-10-11T09:21:52.227Z,55.75
2022-10-11T09:22:52.226Z,58.87
2022-10-11T09:23:52.325Z,59.21
2022-10-11T09:24:52.234Z,59.79
2022-10-11T09:25:52.266Z,59.15
2022-10-11T09:26:52.205Z,61.50
2022-10-11T09:28:02.289Z,59.82
2022-10-11T09:28:58.625Z,58.84
2022-10-11T09:29:53.270Z,57.63
2022-10-11T09:30:52.241Z,58.44
2022-10-11T09:31:52.176Z,58.61
2022-10-11T09:32:52.180Z,62.40
2022-10-11T09:33:52.158Z,58.66
2022-10-11T09:34:52.181Z,57.84
2022-10-11T09:35:52.127Z,59.10
2022-10-11T09:36:52.060Z,59.60
2022-10-11T09:37:52.033Z,58.62
2022-10-11T09:38:52.142Z,58.19
2022-10-11T09:39:52.150Z,57.70
2022-10-11T09:40:52.090Z,57.85
2022-10-11T09:41:52.108Z,60.96
2022-10-11T09:42:52.098Z,59.60
2022-10-11T09:43:52.081Z,57.80
2022-10-11T09:44:52.116Z,58.33
2022-10-11T09:45:52.005Z,55.89
2022-10-11T09:46:52.129Z,58.67
2022-10-11T09:47:52.051Z,59.38
2022-10-11T09:48:52.094Z,57.11
2022-10-11T09:49:52.052Z,59.71
2022-10-11T09:50:52.078Z,60.11
2022-10-11T09:51:52.032Z,58.22
2022-10-11T09:52:51.998Z,58.54
2022-10-11T09:53:51.919Z,57.94
2022-10-11T09:54:51.899Z,58.76
2022-10-11T09:55:51.981Z,59.43
2022-10-11T09:56:52.014Z,59.10
2022-10-11T09:57:51.872Z,71.60
2022-10-11T09:58:51.941Z,60.19
2022-10-11T09:59:51.974Z,60.56
2022-10-11T10:00:51.953Z,62.33
2022-10-11T10:01:52.013Z,59.99
2022-10-11T10:02:51.933Z,57.72
2022-10-11T10:03:51.985Z,62.29
2022-10-11T10:04:51.921Z,59.48
2022-10-11T10:05:52.004Z,59.18
2022-10-11T10:06:51.907Z,58.41
2022-10-11T10:07:52.001Z,59.63
2022-10-11T10:08:51.996Z,56.21
2022-10-11T10:09:51.987Z,56.97
2022-10-11T10:10:55.802Z,56.63
2022-10-11T10:11:52.832Z,59.79
2022-10-11T10:12:51.970Z,55.72
2022-10-11T10:13:51.865Z,58.25
2022-10-11T10:14:51.912Z,57.39
2022-10-11T10:15:51.835Z,57.75
2022-10-11T10:16:51.867Z,57.51
2022-10-11T10:17:51.885Z,57.96
2022-10-11T10:18:51.850Z,56.34
2022-10-11T10:19:51.813Z,56.43
2022-10-11T10:20:51.889Z,56.68
2022-10-11T10:21:51.780Z,52.50
2022-10-11T10:22:51.779Z,53.55
2022-10-11T10:23:51.853Z,54.73
2022-10-11T10:24:51.835Z,57.51
2022-10-11T10:25:51.748Z,55.41
2022-10-11T10:26:51.700Z,56.22
2022-10-11T10:27:51.673Z,54.88
2022-10-11T10:28:51.829Z,57.31
2022-10-11T10:29:51.684Z,53.76
2022-10-11T10:30:51.780Z,54.20
2022-10-11T10:32:15.673Z,56.62
2022-10-11T10:32:53.651Z,56.42
2022-10-11T10:33:51.703Z,57.75
2022-10-11T10:34:51.795Z,57.91
2022-10-11T10:35:51.757Z,59.12
2022-10-11T10:36:51.716Z,58.39
2022-10-11T10:37:51.696Z,56.65
2022-10-11T10:38:52.417Z,58.51
2022-10-11T10:39:52.689Z,59.51
2022-10-11T10:40:51.652Z,59.18
2022-10-11T10:41:51.678Z,56.27
2022-10-11T10:42:51.549Z,57.55
2022-10-11T10:43:51.558Z,55.31
2022-10-11T10:44:51.641Z,58.47
2022-10-11T10:45:51.596Z,59.19
2022-10-11T10:46:51.539Z,56.23
2022-10-11T10:47:51.621Z,58.17
2022-10-11T10:49:54.660Z,57.62
2022-10-11T10:50:52.953Z,57.76
2022-10-11T10:51:51.522Z,56.12
2022-10-11T10:52:51.603Z,59.44
2022-10-11T10:53:51.681Z,56.03
2022-10-11T10:54:51.629Z,56.11
2022-10-11T10:55:51.562Z,56.64
2022-10-11T10:56:51.618Z,58.35
2022-10-11T10:57:51.544Z,56.32
2022-10-11T10:58:51.536Z,56.16
2022-10-11T10:59:51.525Z,54.26
2022-10-11T11:00:51.546Z,57.65
2022-10-11T11:01:51.591Z,56.47
2022-10-11T11:02:51.573Z,55.04
2022-10-11T11:03:51.458Z,58.90
2022-10-11T11:04:51.449Z,56.06
2022-10-11T11:05:51.530Z,54.19
2022-10-11T11:06:51.379Z,53.86
2022-10-11T11:07:51.507Z,52.52
2022-10-11T11:08:51.472Z,53.57
2022-10-11T11:09:51.436Z,55.27
2022-10-11T11:10:51.462Z,56.80
2022-10-11T11:11:51.524Z,55.95
2022-10-11T11:12:51.519Z,58.62
2022-10-11T11:13:51.493Z,57.37
2022-10-11T11:14:51.590Z,56.79
2022-10-11T11:15:51.576Z,59.22
2022-10-11T11:16:51.625Z,59.46
2022-10-11T11:17:51.730Z,56.49
2022-10-11T11:18:51.617Z,57.32
2022-10-11T11:19:51.553Z,61.23
2022-10-11T11:20:51.503Z,58.58
2022-10-11T11:21:51.503Z,57.78
2022-10-11T11:22:51.514Z,60.18
2022-10-11T11:23:51.495Z,58.60
2022-10-11T11:24:51.378Z,59.17
2022-10-11T11:25:51.383Z,61.18
2022-10-11T11:26:51.392Z,59.45
2022-10-11T11:27:51.366Z,56.45
2022-10-11T11:28:51.585Z,55.41
2022-10-11T11:29:55.371Z,56.90
2022-10-11T11:30:52.426Z,58.67
2022-10-11T11:31:51.465Z,60.99
2022-10-11T11:32:51.393Z,59.74
2022-10-11T11:33:51.604Z,59.51
2022-10-11T11:34:51.481Z,57.99
2022-10-11T11:35:51.516Z,59.34
2022-10-11T11:36:51.398Z,56.91
2022-10-11T11:37:57.938Z,58.93
2022-10-11T11:38:53.548Z,56.74
2022-10-11T11:39:51.487Z,59.55
2022-10-11T11:40:51.438Z,59.37
2022-10-11T11:41:51.279Z,58.01
2022-10-11T11:42:51.353Z,58.25
2022-10-11T11:43:51.317Z,60.54
2022-10-11T11:44:52.439Z,58.86
2022-10-11T11:45:52.448Z,60.27
2022-10-11T11:46:51.262Z,56.70
2022-10-11T11:47:51.278Z,59.50
2022-10-11T11:48:51.325Z,57.54
2022-10-11T11:49:51.392Z,58.10
2022-10-11T11:50:51.357Z,57.31
2022-10-11T11:51:51.357Z,57.50
2022-10-11T11:52:51.184Z,57.40
2022-10-11T11:53:51.187Z,58.22
2022-10-11T11:54:51.165Z,58.63
2022-10-11T11:55:51.247Z,59.09
2022-10-11T11:56:51.175Z,59.28
2022-10-11T11:57:51.137Z,59.73
2022-10-11T11:58:51.315Z,57.55
2022-10-11T11:59:51.155Z,59.13
2022-10-11T12:00:51.155Z,59.21
2022-10-11T12:01:51.158Z,60.15
2022-10-11T12:02:51.309Z,59.10
2022-10-11T12:03:51.221Z,57.20
2022-10-11T12:04:51.197Z,58.15
2022-10-11T12:05:51.104Z,58.63
2022-10-11T12:07:14.638Z,58.19
2022-10-11T12:07:53.110Z,60.65
2022-10-11T12:08:51.229Z,59.76
2022-10-11T12:09:51.132Z,59.12
2022-10-11T12:10:51.276Z,58.95
2022-10-11T12:11:51.134Z,58.45
2022-10-11T12:12:51.166Z,59.60
2022-10-11T12:13:51.190Z,59.46
2022-10-11T12:14:51.103Z,58.24
2022-10-11T12:15:51.158Z,59.48
2022-10-11T12:16:51.086Z,59.44
2022-10-11T12:17:51.118Z,56.58
2022-10-11T12:18:50.983Z,57.14
2022-10-11T12:19:51.937Z,57.66
2022-10-11T12:20:50.963Z,59.00
2022-10-11T12:21:53.276Z,57.72
2022-10-11T12:22:51.017Z,57.88
2022-10-11T12:23:51.062Z,58.17
2022-10-11T12:24:50.957Z,58.33
2022-10-11T12:25:50.920Z,61.91
2022-10-11T12:26:50.948Z,60.52
2022-10-11T12:27:51.914Z,58.47
2022-10-11T12:28:50.876Z,60.86
2022-10-11T12:29:50.823Z,59.33
2022-10-11T12:30:50.916Z,60.57
2022-10-11T12:31:51.761Z,59.83
2022-10-11T12:32:50.834Z,60.41
2022-10-11T12:33:50.881Z,58.09
2022-10-11T12:34:50.821Z,62.17
2022-10-11T12:35:50.789Z,63.71
2022-10-11T12:36:50.912Z,64.01
2022-10-11T12:37:50.844Z,60.37
2022-10-11T12:38:50.939Z,57.90
2022-10-11T12:39:50.857Z,64.30
2022-10-11T12:40:50.858Z,63.37
2022-10-11T12:41:50.841Z,59.62
2022-10-11T12:42:50.895Z,57.19
2022-10-11T12:43:50.833Z,77.46
2022-10-11T12:44:51.069Z,70.57
2022-10-11T12:45:50.810Z,63.05
2022-10-11T12:46:50.755Z,62.69
2022-10-11T12:47:50.842Z,59.01
2022-10-11T12:48:50.819Z,57.83
2022-10-11T12:49:50.833Z,58.98
2022-10-11T12:50:50.782Z,57.60
2022-10-11T12:51:50.788Z,55.40
2022-10-11T12:52:50.805Z,55.95
2022-10-11T12:54:14.391Z,56.95